createdAt,value
2023-07-30T00:00:36.773Z,100.00
2023-07-30T00:03:03.737Z,100.00
2023-07-30T00:05:30.600Z,100.00
2023-07-30T00:07:57.372Z,100.00
2023-07-30T00:10:24.244Z,98.24
2023-07-30T00:12:51.028Z,100.00
2023-07-30T00:15:17.997Z,100.00
2023-07-30T00:17:44.808Z,100.00
2023-07-30T00:20:12.029Z,98.42
2023-07-30T00:22:38.825Z,96.70
2023-07-30T00:25:06.049Z,97.71
2023-07-30T00:27:32.856Z,100.00
2023-07-30T00:29:59.700Z,100.00
2023-07-30T00:32:26.514Z,95.40
2023-07-30T00:34:53.351Z,97.92
2023-07-30T00:37:20.384Z,95.71
2023-07-30T00:39:47.326Z,92.85
2023-07-30T00:42:14.179Z,92.32
2023-07-30T00:44:42.282Z,95.01
2023-07-30T00:47:09.588Z,95.45
2023-07-30T00:49:36.582Z,92.40
2023-07-30T00:52:05.100Z,92.19
2023-07-30T00:54:32.062Z,93.84
2023-07-30T00:56:59.006Z,95.58
2023-07-30T00:59:26.909Z,94.76
2023-07-30T01:01:54.182Z,91.56
2023-07-30T01:04:21.159Z,93.43
2023-07-30T01:06:48.106Z,93.43
2023-07-30T01:09:15.381Z,93.04
2023-07-30T01:11:43.716Z,94.56
2023-07-30T01:14:11.177Z,100.00
2023-07-30T01:16:38.742Z,95.25
2023-07-30T01:19:07.107Z,92.29
2023-07-30T01:21:38.396Z,96.92
2023-07-30T01:24:05.598Z,100.00
2023-07-30T01:26:40.067Z,96.30
2023-07-30T01:29:13.270Z,94.91
2023-07-30T01:31:42.617Z,92.36
2023-07-30T01:34:12.511Z,97.90
2023-07-30T01:36:41.193Z,96.80
2023-07-30T01:39:10.572Z,94.82
2023-07-30T01:41:37.608Z,98.35
2023-07-30T01:44:04.795Z,100.00
2023-07-30T01:46:31.669Z,98.49
2023-07-30T01:48:58.547Z,97.67
2023-07-30T01:51:25.299Z,97.65
2023-07-30T01:53:52.484Z,96.45
2023-07-30T01:56:19.328Z,93.81
2023-07-30T01:58:46.094Z,95.78
2023-07-30T02:01:13.150Z,96.83
2023-07-30T02:03:40.135Z,94.43
2023-07-30T02:06:07.961Z,97.61
2023-07-30T02:08:34.808Z,96.34
2023-07-30T02:11:01.634Z,95.15
2023-07-30T02:13:28.564Z,94.49
2023-07-30T02:15:55.382Z,98.92
2023-07-30T02:18:22.312Z,98.37
2023-07-30T02:20:50.460Z,98.39
2023-07-30T02:23:17.540Z,99.44
2023-07-30T02:25:45.052Z,100.00
2023-07-30T02:28:13.369Z,100.00
2023-07-30T02:30:42.056Z,96.98
2023-07-30T02:33:08.833Z,100.00
2023-07-30T02:35:35.910Z,100.00
2023-07-30T02:38:02.721Z,100.00
2023-07-30T02:40:29.499Z,100.00
2023-07-30T02:42:56.401Z,100.00
2023-07-30T02:45:23.371Z,100.00
2023-07-30T02:47:50.268Z,100.00
2023-07-30T02:50:19.421Z,100.00
2023-07-30T02:52:47.825Z,100.00
2023-07-30T02:55:14.682Z,100.00
2023-07-30T02:57:41.455Z,100.00
2023-07-30T03:00:10.029Z,100.00
2023-07-30T03:02:36.880Z,100.00
2023-07-30T03:05:04.057Z,100.00
2023-07-30T03:07:31.910Z,100.00
2023-07-30T03:09:58.676Z,100.00
2023-07-30T03:12:25.390Z,100.00
2023-07-30T03:14:52.158Z,100.00
2023-07-30T03:17:19.009Z,98.75
2023-07-30T03:19:45.766Z,97.20
2023-07-30T03:22:12.535Z,97.77
2023-07-30T03:24:39.276Z,100.00
2023-07-30T03:27:06.596Z,100.00
2023-07-30T03:29:33.637Z,100.00
2023-07-30T03:32:00.480Z,100.00
2023-07-30T03:34:27.224Z,100.00
2023-07-30T03:36:54.040Z,100.00
2023-07-30T03:39:20.838Z,100.00
2023-07-30T03:41:47.652Z,98.15
2023-07-30T03:44:14.452Z,99.73
2023-07-30T03:46:41.257Z,98.23
2023-07-30T03:49:08.081Z,100.00
2023-07-30T03:51:35.131Z,100.00
2023-07-30T03:54:02.403Z,100.00
2023-07-30T03:56:29.336Z,99.18
2023-07-30T03:58:56.064Z,100.00
2023-07-30T04:01:22.997Z,100.00
2023-07-30T04:03:49.969Z,99.47
2023-07-30T04:06:16.806Z,100.00
2023-07-30T04:08:43.615Z,100.00
2023-07-30T04:11:10.401Z,98.42
2023-07-30T04:13:37.208Z,100.00
2023-07-30T04:16:06.237Z,97.71
2023-07-30T04:18:34.006Z,100.00
2023-07-30T04:21:00.775Z,96.97
2023-07-30T04:23:27.639Z,98.17
2023-07-30T04:25:54.510Z,92.27
2023-07-30T04:28:21.299Z,98.90
2023-07-30T04:30:48.310Z,100.00
2023-07-30T04:33:18.702Z,99.09
2023-07-30T04:35:45.764Z,92.19
2023-07-30T04:38:12.626Z,93.69
2023-07-30T04:40:40.817Z,89.48
2023-07-30T04:43:09.274Z,86.82
2023-07-30T04:45:36.885Z,86.39
2023-07-30T04:48:03.918Z,92.18
2023-07-30T04:50:30.782Z,87.57
2023-07-30T04:52:59.908Z,86.94
2023-07-30T04:55:26.769Z,86.84
2023-07-30T04:57:53.729Z,88.12
2023-07-30T05:00:20.632Z,87.03
2023-07-30T05:02:47.557Z,84.46
2023-07-30T05:05:14.420Z,84.99
2023-07-30T05:07:41.226Z,94.99
2023-07-30T05:10:11.242Z,92.61
2023-07-30T05:12:38.500Z,89.20
2023-07-30T05:15:06.130Z,90.60
2023-07-30T05:17:32.907Z,91.80
2023-07-30T05:19:59.698Z,89.10
2023-07-30T05:22:26.514Z,85.30
2023-07-30T05:24:53.386Z,87.73
2023-07-30T05:27:20.169Z,82.19
2023-07-30T05:29:49.253Z,80.39
2023-07-30T05:32:16.427Z,78.95
2023-07-30T05:34:43.488Z,78.33
2023-07-30T05:37:10.276Z,79.27
2023-07-30T05:39:37.067Z,80.50
2023-07-30T05:42:04.213Z,76.84
2023-07-30T05:44:31.117Z,73.93
2023-07-30T05:46:57.867Z,76.33
2023-07-30T05:49:24.659Z,74.66
2023-07-30T05:51:51.421Z,74.45
2023-07-30T05:54:19.095Z,70.01
2023-07-30T05:56:45.824Z,72.78
2023-07-30T05:59:12.668Z,68.99
2023-07-30T06:01:39.819Z,66.55
2023-07-30T06:04:06.923Z,70.36
2023-07-30T06:06:33.741Z,69.35
2023-07-30T06:09:00.548Z,73.08
2023-07-30T06:11:27.615Z,69.67
2023-07-30T06:13:54.363Z,69.28
2023-07-30T06:16:21.821Z,63.14
2023-07-30T06:18:48.748Z,65.98
2023-07-30T06:21:15.513Z,65.87
2023-07-30T06:23:42.284Z,66.19
2023-07-30T06:26:09.249Z,67.93
2023-07-30T06:28:36.171Z,64.37
2023-07-30T06:31:03.944Z,63.27
2023-07-30T06:33:33.117Z,63.78
2023-07-30T06:36:00.339Z,62.74
2023-07-30T06:38:27.142Z,58.86
2023-07-30T06:40:53.942Z,59.26
2023-07-30T06:43:20.798Z,58.41
2023-07-30T06:45:47.586Z,59.15
2023-07-30T06:48:14.669Z,58.54
2023-07-30T06:50:41.422Z,60.77
2023-07-30T06:53:08.486Z,65.99
2023-07-30T06:55:35.208Z,62.11
2023-07-30T06:58:02.086Z,60.13
2023-07-30T07:00:28.910Z,62.54
2023-07-30T07:02:55.776Z,60.12
2023-07-30T07:05:23.055Z,63.44
2023-07-30T07:07:49.844Z,62.13
2023-07-30T07:10:16.783Z,57.10
2023-07-30T07:12:44.063Z,54.74
2023-07-30T07:15:10.908Z,57.20
2023-07-30T07:17:37.801Z,57.78
2023-07-30T07:20:06.273Z,57.75
2023-07-30T07:22:33.132Z,60.35
2023-07-30T07:24:59.854Z,61.10
2023-07-30T07:27:26.962Z,56.26
2023-07-30T07:29:53.958Z,54.69
2023-07-30T07:32:20.862Z,55.67
2023-07-30T07:34:51.372Z,53.07
2023-07-30T07:37:19.909Z,57.84
2023-07-30T07:39:47.305Z,56.75
2023-07-30T07:42:14.200Z,55.11
2023-07-30T07:44:40.938Z,50.62
2023-07-30T07:47:07.707Z,57.54
2023-07-30T07:49:34.456Z,52.35
2023-07-30T07:52:01.188Z,53.20
2023-07-30T07:54:27.955Z,54.04
2023-07-30T07:56:54.801Z,55.08
2023-07-30T07:59:21.595Z,57.00
2023-07-30T08:01:48.424Z,58.01
2023-07-30T08:04:15.306Z,54.51
2023-07-30T08:06:42.258Z,51.32
2023-07-30T08:09:09.290Z,49.76
2023-07-30T08:11:36.263Z,53.11
2023-07-30T08:14:03.286Z,51.78
2023-07-30T08:16:30.148Z,53.60
2023-07-30T08:18:57.168Z,55.56
2023-07-30T08:21:24.090Z,55.28
2023-07-30T08:23:50.889Z,53.90
2023-07-30T08:26:17.728Z,56.05
2023-07-30T08:28:44.553Z,54.76
2023-07-30T08:31:11.339Z,56.18
2023-07-30T08:33:38.086Z,58.76
2023-07-30T08:36:04.923Z,55.39
2023-07-30T08:38:31.693Z,47.30
2023-07-30T08:40:58.905Z,48.71
2023-07-30T08:43:25.987Z,49.05
2023-07-30T08:45:52.910Z,48.77
2023-07-30T08:48:19.844Z,50.45
2023-07-30T08:50:47.102Z,51.62
2023-07-30T08:53:14.917Z,54.48
2023-07-30T08:55:42.681Z,52.13
2023-07-30T08:58:12.557Z,44.92
2023-07-30T09:00:42.301Z,47.63
2023-07-30T09:03:10.174Z,46.35
2023-07-30T09:05:37.942Z,46.83
2023-07-30T09:08:05.046Z,44.87
2023-07-30T09:10:31.874Z,45.48
2023-07-30T09:13:00.049Z,43.21
2023-07-30T09:15:32.666Z,46.02
2023-07-30T09:18:03.470Z,47.74
2023-07-30T09:20:41.482Z,48.35
2023-07-30T09:23:09.834Z,44.41
2023-07-30T09:25:38.011Z,41.68
2023-07-30T09:28:06.732Z,41.96
2023-07-30T09:30:34.753Z,43.82
2023-07-30T09:33:01.685Z,44.02
2023-07-30T09:35:28.543Z,42.66
2023-07-30T09:38:04.295Z,40.14
2023-07-30T09:40:39.834Z,41.41
2023-07-30T09:43:07.280Z,40.31
2023-07-30T09:45:39.097Z,41.02
2023-07-30T09:48:07.165Z,39.46
2023-07-30T09:50:38.363Z,39.47
2023-07-30T09:53:05.671Z,44.05
2023-07-30T09:55:32.640Z,40.28
2023-07-30T09:57:59.586Z,43.00
2023-07-30T10:00:28.121Z,45.48
2023-07-30T10:02:59.257Z,44.65
2023-07-30T10:05:30.074Z,42.77
2023-07-30T10:08:09.769Z,43.62
2023-07-30T10:10:36.676Z,38.46
2023-07-30T10:13:08.099Z,37.81
2023-07-30T10:15:36.086Z,38.76
2023-07-30T10:18:04.763Z,38.75
2023-07-30T10:20:33.026Z,37.46
2023-07-30T10:23:01.873Z,41.72
2023-07-30T10:25:31.677Z,45.46
2023-07-30T10:27:59.948Z,44.22
2023-07-30T10:30:33.169Z,44.59
2023-07-30T10:33:05.028Z,44.88
2023-07-30T10:35:49.117Z,44.73
2023-07-30T10:38:21.917Z,47.74
2023-07-30T10:41:03.104Z,45.89
2023-07-30T10:43:56.243Z,47.90
2023-07-30T10:46:23.050Z,46.14
2023-07-30T10:48:50.254Z,44.32
2023-07-30T10:51:18.705Z,41.22
2023-07-30T10:53:46.541Z,41.07
2023-07-30T10:56:15.097Z,41.78
2023-07-30T10:58:43.581Z,39.24
2023-07-30T11:01:10.891Z,40.10
2023-07-30T11:03:40.003Z,36.75
2023-07-30T11:06:06.977Z,38.77
2023-07-30T11:08:35.999Z,35.68
2023-07-30T11:11:03.554Z,38.85
2023-07-30T11:13:30.763Z,41.94
2023-07-30T11:15:57.535Z,40.04
2023-07-30T11:18:24.511Z,40.81
2023-07-30T11:20:51.643Z,39.32
2023-07-30T11:23:21.911Z,40.68
2023-07-30T11:25:50.409Z,41.89
2023-07-30T11:28:38.747Z,39.43
2023-07-30T11:31:08.976Z,38.78
2023-07-30T11:33:44.945Z,41.41
2023-07-30T11:36:16.223Z,41.49
2023-07-30T11:38:44.309Z,42.19
2023-07-30T11:41:12.372Z,44.16
2023-07-30T11:43:46.114Z,45.00
2023-07-30T11:46:18.679Z,45.92
2023-07-30T11:48:48.376Z,48.03
2023-07-30T11:51:35.475Z,51.19
2023-07-30T11:54:03.228Z,48.41
2023-07-30T11:56:32.139Z,45.55
2023-07-30T11:59:09.075Z,42.95
2023-07-30T12:01:38.512Z,45.61
2023-07-30T12:04:07.447Z,47.77
2023-07-30T12:06:45.061Z,49.19
2023-07-30T12:09:13.983Z,49.97
2023-07-30T12:11:59.041Z,48.66
2023-07-30T12:14:43.144Z,48.16
2023-07-30T12:17:10.412Z,49.06
2023-07-30T12:19:37.430Z,47.27
2023-07-30T12:22:04.695Z,48.21
2023-07-30T12:24:31.500Z,47.15
2023-07-30T12:26:58.508Z,42.93
2023-07-30T12:29:26.533Z,45.61
2023-07-30T12:31:54.990Z,47.11
2023-07-30T12:34:21.938Z,48.96
2023-07-30T12:36:48.708Z,46.91
2023-07-30T12:39:15.723Z,50.83
2023-07-30T12:41:42.550Z,46.73
2023-07-30T12:44:10.879Z,41.92
2023-07-30T12:46:37.738Z,44.14
2023-07-30T12:49:05.927Z,44.05
2023-07-30T12:51:34.142Z,42.12
2023-07-30T12:54:01.265Z,44.60
2023-07-30T12:56:28.082Z,43.49
2023-07-30T12:58:55.009Z,39.52
2023-07-30T13:01:21.984Z,37.65
2023-07-30T13:03:50.198Z,36.81
2023-07-30T13:06:17.338Z,40.72
2023-07-30T13:08:44.216Z,40.54
2023-07-30T13:11:11.164Z,42.59
2023-07-30T13:13:38.030Z,41.16
2023-07-30T13:16:05.151Z,43.42
2023-07-30T13:18:31.969Z,44.30
2023-07-30T13:20:58.794Z,43.91
2023-07-30T13:23:30.201Z,42.29
2023-07-30T13:25:57.219Z,41.25
2023-07-30T13:28:24.084Z,41.13
2023-07-30T13:30:52.277Z,38.72
2023-07-30T13:33:19.217Z,37.93
2023-07-30T13:35:46.060Z,41.19
2023-07-30T13:38:12.842Z,40.30
2023-07-30T13:40:39.730Z,42.42
2023-07-30T13:43:06.561Z,38.10
2023-07-30T13:45:33.433Z,37.45
2023-07-30T13:48:00.330Z,38.23
2023-07-30T13:50:27.483Z,36.72
2023-07-30T13:52:54.316Z,36.80
2023-07-30T13:55:21.314Z,34.19
2023-07-30T13:57:48.091Z,37.56
2023-07-30T14:00:15.069Z,36.70
2023-07-30T14:02:42.047Z,35.13
2023-07-30T14:05:09.454Z,34.98
2023-07-30T14:07:36.440Z,37.29
2023-07-30T14:10:03.733Z,38.43
2023-07-30T14:12:30.511Z,38.04
2023-07-30T14:14:57.307Z,41.38
2023-07-30T14:17:24.059Z,48.50
2023-07-30T14:19:50.772Z,53.23
2023-07-30T14:22:17.724Z,56.21
2023-07-30T14:24:45.956Z,54.00
2023-07-30T14:27:13.247Z,53.72
2023-07-30T14:29:40.105Z,48.62
2023-07-30T14:32:07.442Z,45.63
2023-07-30T14:34:34.294Z,47.88
2023-07-30T14:37:01.120Z,50.15
2023-07-30T14:39:28.173Z,48.68
2023-07-30T14:41:55.085Z,48.24
2023-07-30T14:44:22.589Z,49.55
2023-07-30T14:46:49.316Z,53.63
2023-07-30T14:49:16.063Z,53.41
2023-07-30T14:51:43.632Z,51.50
2023-07-30T14:54:11.562Z,50.66
2023-07-30T14:56:38.913Z,51.75
2023-07-30T14:59:05.921Z,56.82
2023-07-30T15:01:32.752Z,60.74
2023-07-30T15:04:00.146Z,59.13
2023-07-30T15:06:33.004Z,55.65
2023-07-30T15:09:00.798Z,52.61
2023-07-30T15:11:28.533Z,47.10
2023-07-30T15:13:55.344Z,48.54
2023-07-30T15:16:22.190Z,51.73
2023-07-30T15:18:49.038Z,53.01
2023-07-30T15:21:16.048Z,50.56
2023-07-30T15:23:47.204Z,47.45
2023-07-30T15:26:14.017Z,47.56
2023-07-30T15:28:41.692Z,45.22
2023-07-30T15:31:08.859Z,37.20
2023-07-30T15:33:36.741Z,37.21
2023-07-30T15:36:04.295Z,37.07
2023-07-30T15:38:31.460Z,36.03
2023-07-30T15:40:59.322Z,34.20
2023-07-30T15:43:26.379Z,36.63
2023-07-30T15:45:54.314Z,33.41
2023-07-30T15:48:21.143Z,32.93
2023-07-30T15:50:47.941Z,33.45
2023-07-30T15:53:14.908Z,33.13
2023-07-30T15:55:41.712Z,32.82
2023-07-30T15:58:08.459Z,34.03
2023-07-30T16:00:35.995Z,36.91
2023-07-30T16:03:05.563Z,40.51
2023-07-30T16:05:32.822Z,39.41
2023-07-30T16:07:59.622Z,41.18
2023-07-30T16:10:26.784Z,41.49
2023-07-30T16:12:53.652Z,41.77
2023-07-30T16:15:20.364Z,41.84
2023-07-30T16:17:47.294Z,43.46
2023-07-30T16:20:14.137Z,41.66
2023-07-30T16:22:41.097Z,44.37
2023-07-30T16:25:09.268Z,41.60
2023-07-30T16:27:36.323Z,41.04
2023-07-30T16:30:04.898Z,41.12
2023-07-30T16:32:31.780Z,40.91
2023-07-30T16:34:58.686Z,42.41
2023-07-30T16:37:25.494Z,41.43
2023-07-30T16:41:30.613Z,41.74
2023-07-30T16:43:57.510Z,42.51
2023-07-30T16:46:24.538Z,43.79
2023-07-30T16:48:51.327Z,44.88
2023-07-30T16:51:18.882Z,45.65
2023-07-30T16:53:45.749Z,44.50
2023-07-30T16:56:17.738Z,46.41
2023-07-30T16:58:44.732Z,44.36
2023-07-30T17:01:11.609Z,42.97
2023-07-30T17:03:39.505Z,43.04
2023-07-30T17:06:07.274Z,40.31
2023-07-30T17:08:34.813Z,39.34
2023-07-30T17:11:06.817Z,37.51
2023-07-30T17:13:35.281Z,37.35
2023-07-30T17:16:09.584Z,36.34
2023-07-30T17:18:36.928Z,36.09
2023-07-30T17:21:05.420Z,35.50
2023-07-30T17:23:32.836Z,34.70
2023-07-30T17:26:00.724Z,34.56
2023-07-30T17:28:30.155Z,35.67
2023-07-30T17:30:57.673Z,35.18
2023-07-30T17:33:24.823Z,33.76
2023-07-30T17:35:51.711Z,34.78
2023-07-30T17:38:18.667Z,34.07
2023-07-30T17:40:55.703Z,35.80
2023-07-30T17:43:23.835Z,33.78
2023-07-30T17:45:51.533Z,34.51
2023-07-30T17:48:18.815Z,34.37
2023-07-30T17:50:46.582Z,32.56
2023-07-30T17:53:13.630Z,34.61
2023-07-30T17:55:44.457Z,35.35
2023-07-30T17:58:11.513Z,37.86
2023-07-30T18:00:46.299Z,35.63
2023-07-30T18:03:13.478Z,36.97
2023-07-30T18:05:48.178Z,35.05
2023-07-30T18:08:16.628Z,34.43
2023-07-30T18:10:45.598Z,36.09
2023-07-30T18:13:12.680Z,38.25
2023-07-30T18:15:39.649Z,40.58
2023-07-30T18:18:07.926Z,40.61
2023-07-30T18:20:35.781Z,41.33
2023-07-30T18:23:05.891Z,41.01
2023-07-30T18:25:32.863Z,41.72
2023-07-30T18:28:00.613Z,43.45
2023-07-30T18:30:27.669Z,42.74
2023-07-30T18:32:54.532Z,45.33
2023-07-30T18:35:21.810Z,44.96
2023-07-30T18:37:48.592Z,45.28
2023-07-30T18:40:15.443Z,46.93
2023-07-30T18:42:42.295Z,49.20
2023-07-30T18:45:09.520Z,49.35
2023-07-30T18:47:36.349Z,47.03
2023-07-30T18:50:04.818Z,49.95
2023-07-30T18:52:32.409Z,54.50
2023-07-30T18:54:59.467Z,52.57
2023-07-30T18:57:26.531Z,53.30
2023-07-30T18:59:53.599Z,53.18
2023-07-30T19:02:20.666Z,55.06
2023-07-30T19:04:47.765Z,54.94
2023-07-30T19:07:14.836Z,54.36
2023-07-30T19:09:41.891Z,56.29
2023-07-30T19:12:08.940Z,55.92
2023-07-30T19:14:35.925Z,56.91
2023-07-30T19:17:02.806Z,60.13
2023-07-30T19:19:29.580Z,59.65
2023-07-30T19:21:56.621Z,61.13
2023-07-30T19:24:23.629Z,61.13
2023-07-30T19:26:51.428Z,62.12
2023-07-30T19:29:18.228Z,62.74
2023-07-30T19:31:45.034Z,64.24
2023-07-30T19:34:13.190Z,64.64
2023-07-30T19:36:40.798Z,65.72
2023-07-30T19:39:08.448Z,65.61
2023-07-30T19:41:36.142Z,65.24
2023-07-30T19:44:03.459Z,66.17
2023-07-30T19:46:31.622Z,67.39
2023-07-30T19:48:59.099Z,68.41
2023-07-30T19:51:26.466Z,67.02
2023-07-30T19:53:53.287Z,67.51
2023-07-30T19:56:20.125Z,66.69
2023-07-30T19:58:46.882Z,66.89
2023-07-30T20:01:13.848Z,66.00
2023-07-30T20:03:40.760Z,67.75
2023-07-30T20:06:09.951Z,67.77
2023-07-30T20:08:38.637Z,68.77
2023-07-30T20:11:06.849Z,73.81
2023-07-30T20:13:34.738Z,73.34
2023-07-30T20:16:02.061Z,72.18
2023-07-30T20:18:31.598Z,74.40
2023-07-30T20:20:58.951Z,73.61
2023-07-30T20:23:26.911Z,72.16
2023-07-30T20:25:53.913Z,75.37
2023-07-30T20:28:22.113Z,74.10
2023-07-30T20:30:49.387Z,72.49
2023-07-30T20:33:16.196Z,72.07
2023-07-30T20:35:43.042Z,70.92
2023-07-30T20:38:09.842Z,70.90
2023-07-30T20:40:36.654Z,66.36
2023-07-30T20:43:03.528Z,66.44
2023-07-30T20:45:31.380Z,66.53
2023-07-30T20:47:58.647Z,63.54
2023-07-30T20:50:25.519Z,62.90
2023-07-30T20:52:52.350Z,64.62
2023-07-30T20:55:20.060Z,63.58
2023-07-30T20:57:47.146Z,61.76
2023-07-30T21:00:14.825Z,60.63
2023-07-30T21:02:41.701Z,60.91
2023-07-30T21:05:09.471Z,62.08
2023-07-30T21:07:36.913Z,64.13
2023-07-30T21:10:04.377Z,62.48
2023-07-30T21:12:32.800Z,60.45
2023-07-30T21:15:03.016Z,60.81
2023-07-30T21:17:32.005Z,61.54
2023-07-30T21:19:58.956Z,59.49
2023-07-30T21:22:26.178Z,58.04
2023-07-30T21:24:52.990Z,57.20
2023-07-30T21:27:19.911Z,58.92
2023-07-30T21:29:46.943Z,56.85
2023-07-30T21:32:14.095Z,57.80
2023-07-30T21:34:42.904Z,59.63
2023-07-30T21:37:10.656Z,56.84
2023-07-30T21:39:37.741Z,57.41
2023-07-30T21:42:04.957Z,55.61
2023-07-30T21:44:33.156Z,57.13
2023-07-30T21:47:00.056Z,58.91
2023-07-30T21:49:26.850Z,60.63
2023-07-30T21:51:57.202Z,63.01
2023-07-30T21:54:24.004Z,64.66
2023-07-30T21:56:50.747Z,69.13
2023-07-30T21:59:17.590Z,67.39
2023-07-30T22:01:44.458Z,67.77
2023-07-30T22:04:11.254Z,68.26
2023-07-30T22:06:38.327Z,67.86
2023-07-30T22:09:05.400Z,70.76
2023-07-30T22:11:32.776Z,69.03
2023-07-30T22:13:59.544Z,70.19
2023-07-30T22:16:26.390Z,65.06
2023-07-30T22:18:53.222Z,64.28
2023-07-30T22:21:20.026Z,62.85
2023-07-30T22:23:46.786Z,64.81
2023-07-30T22:26:13.634Z,65.24
2023-07-30T22:28:40.465Z,65.79
2023-07-30T22:31:07.380Z,67.17
2023-07-30T22:33:34.221Z,67.39
2023-07-30T22:36:01.097Z,64.62
2023-07-30T22:38:27.950Z,70.20
2023-07-30T22:40:54.771Z,68.66
2023-07-30T22:43:22.679Z,71.61
2023-07-30T22:45:49.742Z,71.60
2023-07-30T22:48:16.629Z,72.72
2023-07-30T22:50:45.393Z,69.21
2023-07-30T22:53:12.962Z,76.04
2023-07-30T22:55:40.062Z,71.64
2023-07-30T22:58:07.056Z,72.14
2023-07-30T23:00:33.942Z,69.76
2023-07-30T23:03:01.011Z,74.23
2023-07-30T23:05:28.574Z,73.79
2023-07-30T23:07:55.448Z,70.92
2023-07-30T23:10:22.251Z,74.99
2023-07-30T23:12:49.057Z,76.25
2023-07-30T23:15:15.958Z,77.57
2023-07-30T23:17:42.830Z,77.71
2023-07-30T23:20:10.190Z,77.35
2023-07-30T23:22:37.095Z,74.38
2023-07-30T23:25:03.978Z,75.40
2023-07-30T23:27:30.765Z,77.75
2023-07-30T23:29:57.597Z,78.55
2023-07-30T23:32:24.429Z,76.74
2023-07-30T23:34:51.198Z,77.68
2023-07-30T23:37:17.950Z,76.55
2023-07-30T23:39:44.757Z,76.91
2023-07-30T23:42:11.522Z,79.70
2023-07-30T23:44:38.367Z,81.65
2023-07-30T23:47:05.507Z,81.06
2023-07-30T23:49:32.434Z,81.21
2023-07-30T23:51:59.263Z,80.07
2023-07-30T23:54:26.080Z,77.22
2023-07-30T23:56:52.945Z,73.56
2023-07-30T23:59:19.738Z,78.81
